createdAt,value
2023-04-14T00:00:15.411Z,6.30
2023-04-14T00:02:17.057Z,6.30
2023-04-14T00:04:19.959Z,6.30
2023-04-14T00:06:22.035Z,6.30
2023-04-14T00:08:23.819Z,6.20
2023-04-14T00:10:26.255Z,6.20
2023-04-14T00:12:27.996Z,6.10
2023-04-14T00:14:29.779Z,6.10
2023-04-14T00:16:31.768Z,6.10
2023-04-14T00:18:33.614Z,6.00
2023-04-14T00:20:35.305Z,6.00
2023-04-14T00:22:37.358Z,6.00
2023-04-14T00:24:43.475Z,6.00
2023-04-14T00:26:45.274Z,5.90
2023-04-14T00:28:46.886Z,6.00
2023-04-14T00:30:48.618Z,6.00
2023-04-14T00:32:50.472Z,6.00
2023-04-14T00:34:52.210Z,5.90
2023-04-14T00:36:53.984Z,5.90
2023-04-14T00:38:55.746Z,6.00
2023-04-14T00:40:57.723Z,5.90
2023-04-14T00:42:59.394Z,5.80
2023-04-14T00:45:01.339Z,5.80
2023-04-14T00:47:03.477Z,5.80
2023-04-14T00:49:05.190Z,5.70
2023-04-14T00:51:06.877Z,5.70
2023-04-14T00:53:08.856Z,5.70
2023-04-14T00:55:11.044Z,5.70
2023-04-14T00:57:12.840Z,5.70
2023-04-14T00:59:16.396Z,5.70
2023-04-14T01:01:18.117Z,5.60
2023-04-14T01:03:20.065Z,5.60
2023-04-14T01:05:22.106Z,5.60
2023-04-14T01:07:24.935Z,5.50
2023-04-14T01:09:27.536Z,5.50
2023-04-14T01:11:29.238Z,5.40
2023-04-14T01:13:33.612Z,5.50
2023-04-14T01:15:50.775Z,5.50
2023-04-14T01:18:11.398Z,5.50
2023-04-14T01:20:32.211Z,5.60
2023-04-14T01:22:36.283Z,5.50
2023-04-14T01:24:44.009Z,5.50
2023-04-14T01:26:45.670Z,5.50
2023-04-14T01:29:02.958Z,5.60
2023-04-14T01:31:23.972Z,5.70
2023-04-14T01:33:26.482Z,5.70
2023-04-14T01:35:44.080Z,5.70
2023-04-14T01:37:49.826Z,5.70
2023-04-14T01:39:55.035Z,5.60
2023-04-14T01:41:58.289Z,5.50
2023-04-14T01:44:01.782Z,5.50
2023-04-14T01:46:08.928Z,5.50
2023-04-14T01:48:11.616Z,5.40
2023-04-14T01:50:13.491Z,5.40
2023-04-14T01:52:17.223Z,5.40
2023-04-14T01:54:20.164Z,5.40
2023-04-14T01:56:22.544Z,5.30
2023-04-14T01:58:25.376Z,5.20
2023-04-14T02:00:27.734Z,5.20
2023-04-14T02:02:30.036Z,5.10
2023-04-14T02:04:32.248Z,5.00
2023-04-14T02:06:34.712Z,5.00
2023-04-14T02:08:37.540Z,5.00
2023-04-14T02:10:42.418Z,5.00
2023-04-14T02:12:45.735Z,5.00
2023-04-14T02:14:47.743Z,5.00
2023-04-14T02:16:50.921Z,4.90
2023-04-14T02:18:52.850Z,4.80
2023-04-14T02:20:56.216Z,4.80
2023-04-14T02:22:58.031Z,4.90
2023-04-14T02:24:59.660Z,4.90
2023-04-14T02:27:07.736Z,4.90
2023-04-14T02:29:13.522Z,4.80
2023-04-14T02:31:20.369Z,4.80
2023-04-14T02:33:24.159Z,4.80
2023-04-14T02:35:27.305Z,4.80
2023-04-14T02:37:33.308Z,4.70
2023-04-14T02:39:41.857Z,4.70
2023-04-14T02:41:44.602Z,4.70
2023-04-14T02:43:53.840Z,4.70
2023-04-14T02:45:56.423Z,4.70
2023-04-14T02:48:09.047Z,4.80
2023-04-14T02:50:12.722Z,4.80
2023-04-14T02:52:15.696Z,4.90
2023-04-14T02:54:18.456Z,4.90
2023-04-14T02:56:20.839Z,4.90
2023-04-14T02:58:22.606Z,4.90
2023-04-14T03:00:24.551Z,4.90
2023-04-14T03:02:27.189Z,4.90
2023-04-14T03:04:29.753Z,4.90
2023-04-14T03:06:31.766Z,4.80
2023-04-14T03:08:34.003Z,4.80
2023-04-14T03:10:35.984Z,4.70
2023-04-14T03:12:38.023Z,4.70
2023-04-14T03:14:41.049Z,4.60
2023-04-14T03:16:42.838Z,4.70
2023-04-14T03:18:44.903Z,4.70
2023-04-14T03:20:47.216Z,4.60
2023-04-14T03:23:01.998Z,4.60
2023-04-14T03:25:03.742Z,4.60
2023-04-14T03:27:07.027Z,4.60
2023-04-14T03:29:09.468Z,4.60
2023-04-14T03:31:11.695Z,4.50
2023-04-14T03:33:16.512Z,4.60
2023-04-14T03:35:19.263Z,4.60
2023-04-14T03:37:24.370Z,4.50
2023-04-14T03:39:28.147Z,4.50
2023-04-14T03:41:31.266Z,4.40
2023-04-14T03:43:33.469Z,4.40
2023-04-14T03:45:36.235Z,4.40
2023-04-14T03:47:38.893Z,4.40
2023-04-14T03:49:43.208Z,4.30
2023-04-14T03:51:45.232Z,4.20
2023-04-14T03:53:48.034Z,4.20
2023-04-14T03:55:51.415Z,4.10
2023-04-14T03:57:58.403Z,4.10
2023-04-14T04:00:08.511Z,4.10
2023-04-14T04:02:11.047Z,4.10
2023-04-14T04:04:13.338Z,4.00
2023-04-14T04:06:15.867Z,4.10
2023-04-14T04:08:18.654Z,4.10
2023-04-14T04:10:21.252Z,4.20
2023-04-14T04:12:23.388Z,4.10
2023-04-14T04:14:25.993Z,4.00
2023-04-14T04:16:28.698Z,4.00
2023-04-14T04:18:31.631Z,3.90
2023-04-14T04:20:34.624Z,3.90
2023-04-14T04:22:37.972Z,4.00
2023-04-14T04:24:40.620Z,4.00
2023-04-14T04:26:42.477Z,3.90
2023-04-14T04:28:44.357Z,3.80
2023-04-14T04:30:46.468Z,3.80
2023-04-14T04:32:48.147Z,3.80
2023-04-14T04:34:50.898Z,3.80
2023-04-14T04:36:53.754Z,3.80
2023-04-14T04:38:57.129Z,3.80
2023-04-14T04:40:58.927Z,3.80
2023-04-14T04:43:00.864Z,3.80
2023-04-14T04:45:02.724Z,3.70
2023-04-14T04:47:05.671Z,3.60
2023-04-14T04:49:07.457Z,3.60
2023-04-14T04:51:09.177Z,3.50
2023-04-14T04:53:12.309Z,3.70
2023-04-14T04:55:14.142Z,3.60
2023-04-14T04:57:16.008Z,3.60
2023-04-14T04:59:17.834Z,3.60
2023-04-14T05:01:19.629Z,3.60
2023-04-14T05:03:21.727Z,3.60
2023-04-14T05:05:25.985Z,3.70
2023-04-14T05:07:27.687Z,3.60
2023-04-14T05:09:29.360Z,3.50
2023-04-14T05:11:31.704Z,3.40
2023-04-14T05:13:33.411Z,3.40
2023-04-14T05:15:35.651Z,3.50
2023-04-14T05:17:47.440Z,3.50
2023-04-14T05:19:56.211Z,3.50
2023-04-14T05:22:23.297Z,3.50
2023-04-14T05:24:24.998Z,3.50
2023-04-14T05:28:35.024Z,3.50
2023-04-14T05:30:39.289Z,3.50
2023-04-14T05:32:41.385Z,3.50
2023-04-14T05:34:43.040Z,3.40
2023-04-14T05:36:44.702Z,3.50
2023-04-14T05:38:46.491Z,3.40
2023-04-14T05:40:48.494Z,3.50
2023-04-14T05:42:50.179Z,3.50
2023-04-14T05:44:51.798Z,3.60
2023-04-14T05:46:53.565Z,3.60
2023-04-14T05:48:55.313Z,3.70
2023-04-14T05:50:57.913Z,3.80
2023-04-14T05:52:59.794Z,3.80
2023-04-14T05:55:01.536Z,3.80
2023-04-14T05:57:03.519Z,3.80
2023-04-14T05:59:05.241Z,3.90
2023-04-14T06:01:07.008Z,3.80
2023-04-14T06:03:09.081Z,3.90
2023-04-14T06:05:12.885Z,4.00
2023-04-14T06:07:14.598Z,4.10
2023-04-14T06:09:16.537Z,4.10
2023-04-14T06:11:18.306Z,4.10
2023-04-14T06:13:22.876Z,4.20
2023-04-14T06:15:28.510Z,4.20
2023-04-14T06:17:30.852Z,4.30
2023-04-14T06:19:32.503Z,4.30
2023-04-14T06:21:34.181Z,4.40
2023-04-14T06:23:35.947Z,4.50
2023-04-14T06:25:37.628Z,4.70
2023-04-14T06:27:39.293Z,4.80
2023-04-14T06:29:41.092Z,4.80
2023-04-14T06:31:42.958Z,4.90
2023-04-14T06:33:44.682Z,5.00
2023-04-14T06:35:46.408Z,5.10
2023-04-14T06:37:48.112Z,5.20
2023-04-14T06:39:49.739Z,5.30
2023-04-14T06:41:51.400Z,5.30
2023-04-14T06:43:53.271Z,5.40
2023-04-14T06:45:55.028Z,5.40
2023-04-14T06:47:56.802Z,5.40
2023-04-14T06:49:58.944Z,5.50
2023-04-14T06:52:00.685Z,5.50
2023-04-14T06:54:02.676Z,5.60
2023-04-14T06:56:06.000Z,5.60
2023-04-14T06:58:07.928Z,5.60
2023-04-14T07:00:10.708Z,5.70
2023-04-14T07:02:12.525Z,5.80
2023-04-14T07:04:15.555Z,5.80
2023-04-14T07:06:17.562Z,5.80
2023-04-14T07:08:19.923Z,5.80
2023-04-14T07:10:21.794Z,5.80
2023-04-14T07:12:23.720Z,5.90
2023-04-14T07:14:25.435Z,6.00
2023-04-14T07:16:27.454Z,6.00
2023-04-14T07:18:30.112Z,6.10
2023-04-14T07:20:32.302Z,6.10
2023-04-14T07:22:34.446Z,6.20
2023-04-14T07:24:36.289Z,6.20
2023-04-14T07:26:37.989Z,6.20
2023-04-14T07:28:39.664Z,6.20
2023-04-14T07:30:41.395Z,6.30
2023-04-14T07:32:46.649Z,6.30
2023-04-14T07:34:49.363Z,6.40
2023-04-14T07:36:51.185Z,6.40
2023-04-14T07:38:53.019Z,6.40
2023-04-14T07:40:54.746Z,6.50
2023-04-14T07:42:57.924Z,6.60
2023-04-14T07:45:03.298Z,6.70
2023-04-14T07:47:04.902Z,6.70
2023-04-14T07:49:06.601Z,6.80
2023-04-14T07:51:12.151Z,6.80
2023-04-14T07:53:14.135Z,6.80
2023-04-14T07:55:16.552Z,6.90
2023-04-14T07:57:18.506Z,7.00
2023-04-14T07:59:20.507Z,7.10
2023-04-14T08:01:22.133Z,7.20
2023-04-14T08:03:24.215Z,7.20
2023-04-14T08:05:26.335Z,7.20
2023-04-14T08:07:28.708Z,7.20
2023-04-14T08:09:30.420Z,7.40
2023-04-14T08:11:32.059Z,7.50
2023-04-14T08:13:34.770Z,7.50
2023-04-14T08:15:36.779Z,7.60
2023-04-14T08:17:38.499Z,7.60
2023-04-14T08:19:40.670Z,7.60
2023-04-14T08:21:42.342Z,7.70
2023-04-14T08:23:44.211Z,7.90
2023-04-14T08:25:45.969Z,7.90
2023-04-14T08:27:47.667Z,7.90
2023-04-14T08:29:51.377Z,7.90
2023-04-14T08:31:53.113Z,7.90
2023-04-14T08:33:54.844Z,7.90
2023-04-14T08:35:59.927Z,8.10
2023-04-14T08:38:02.442Z,8.20
2023-04-14T08:40:04.919Z,8.40
2023-04-14T08:42:08.192Z,8.60
2023-04-14T08:44:10.355Z,8.60
2023-04-14T08:46:13.614Z,8.60
2023-04-14T08:48:17.756Z,8.60
2023-04-14T08:50:22.377Z,8.90
2023-04-14T08:52:24.321Z,9.00
2023-04-14T08:54:27.275Z,9.00
2023-04-14T08:56:31.746Z,9.20
2023-04-14T08:58:33.450Z,9.10
2023-04-14T09:00:36.034Z,9.10
2023-04-14T09:02:40.314Z,9.20
2023-04-14T09:04:43.489Z,9.40
2023-04-14T09:06:45.491Z,9.50
2023-04-14T09:08:47.166Z,9.50
2023-04-14T09:10:48.843Z,9.60
2023-04-14T09:12:51.166Z,9.60
2023-04-14T09:14:54.089Z,9.80
2023-04-14T09:16:56.475Z,9.80
2023-04-14T09:19:03.631Z,10.00
2023-04-14T09:21:49.017Z,10.20
2023-04-14T09:23:32.898Z,10.30
2023-04-14T09:25:35.286Z,10.40
2023-04-14T09:27:37.246Z,10.40
2023-04-14T09:29:39.023Z,10.50
2023-04-14T09:31:40.859Z,11.00
2023-04-14T09:33:58.455Z,11.10
2023-04-14T09:36:01.357Z,11.00
2023-04-14T09:38:05.186Z,10.70
2023-04-14T09:40:08.211Z,10.60
2023-04-14T09:42:10.001Z,10.40
2023-04-14T09:44:11.712Z,10.60
2023-04-14T09:46:13.641Z,10.80
2023-04-14T09:48:15.438Z,10.90
2023-04-14T09:50:17.168Z,11.00
2023-04-14T09:52:18.850Z,11.30
2023-04-14T09:54:27.052Z,11.60
2023-04-14T09:56:28.834Z,11.70
2023-04-14T09:58:31.641Z,11.60
2023-04-14T10:00:33.609Z,11.50
2023-04-14T10:02:47.716Z,11.80
2023-04-14T10:05:03.335Z,11.70
2023-04-14T10:07:07.481Z,11.80
2023-04-14T10:09:20.194Z,12.10
2023-04-14T10:11:26.081Z,12.20
2023-04-14T10:13:27.692Z,12.10
2023-04-14T10:15:29.346Z,12.20
2023-04-14T10:17:33.436Z,12.00
2023-04-14T10:19:37.684Z,11.70
2023-04-14T10:21:39.501Z,11.40
2023-04-14T10:23:41.785Z,11.50
2023-04-14T10:25:43.668Z,12.10
2023-04-14T10:27:45.478Z,12.60
2023-04-14T10:29:47.248Z,13.10
2023-04-14T10:31:54.926Z,13.30
2023-04-14T10:33:56.774Z,13.40
2023-04-14T10:35:59.353Z,12.80
2023-04-14T10:38:01.215Z,13.00
2023-04-14T10:40:05.424Z,13.00
2023-04-14T10:42:07.034Z,13.70
2023-04-14T10:44:26.943Z,13.80
2023-04-14T10:46:42.567Z,13.60
2023-04-14T10:48:46.358Z,13.60
2023-04-14T10:50:49.073Z,13.80
2023-04-14T10:52:58.868Z,13.70
2023-04-14T10:55:11.637Z,13.30
2023-04-14T10:57:14.688Z,12.90
2023-04-14T10:59:17.678Z,12.80
2023-04-14T11:01:26.802Z,13.40
2023-04-14T11:03:30.852Z,14.20
2023-04-14T11:05:34.069Z,13.00
2023-04-14T11:07:41.557Z,13.90
2023-04-14T11:09:43.252Z,14.20
2023-04-14T11:11:45.011Z,14.90
2023-04-14T11:14:24.256Z,16.10
2023-04-14T11:16:29.148Z,16.70
2023-04-14T11:18:33.980Z,18.10
2023-04-14T11:20:42.999Z,18.40
2023-04-14T11:22:48.378Z,18.30
2023-04-14T11:24:50.235Z,18.20
2023-04-14T11:26:55.276Z,19.00
2023-04-14T11:28:57.743Z,20.00
2023-04-14T11:31:00.322Z,21.00
2023-04-14T11:33:08.369Z,19.80
2023-04-14T11:35:11.663Z,20.80
2023-04-14T11:37:14.431Z,16.80
2023-04-14T11:39:17.072Z,18.60
2023-04-14T11:41:21.585Z,18.10
2023-04-14T11:43:24.134Z,18.20
2023-04-14T11:45:29.134Z,19.20
2023-04-14T11:47:30.872Z,18.50
2023-04-14T11:49:36.238Z,19.70
2023-04-14T11:51:38.974Z,22.10
2023-04-14T11:53:41.125Z,22.30
2023-04-14T11:55:46.879Z,22.60
2023-04-14T11:57:49.288Z,21.80
2023-04-14T11:59:51.515Z,18.00
2023-04-14T12:01:53.438Z,16.40
2023-04-14T12:03:55.544Z,16.00
2023-04-14T12:05:59.845Z,14.80
2023-04-14T12:10:31.609Z,16.70
2023-04-14T12:12:33.374Z,15.90
2023-04-14T12:14:36.165Z,15.40
2023-04-14T12:16:38.194Z,15.00
2023-04-14T12:18:39.984Z,14.80
2023-04-14T12:20:51.697Z,15.60
2023-04-14T12:23:01.124Z,18.50
2023-04-14T12:25:09.838Z,20.60
2023-04-14T12:27:11.479Z,21.00
2023-04-14T12:29:13.930Z,21.60
2023-04-14T12:31:26.451Z,22.90
2023-04-14T12:33:28.851Z,23.00
2023-04-14T12:35:34.449Z,19.30
2023-04-14T12:37:38.869Z,21.50
2023-04-14T12:39:50.944Z,21.60
2023-04-14T12:41:53.835Z,22.10
2023-04-14T12:43:56.045Z,20.50
2023-04-14T12:46:00.901Z,20.90
2023-04-14T12:48:02.814Z,21.70
2023-04-14T12:50:28.374Z,21.60
2023-04-14T12:52:33.555Z,18.70
2023-04-14T12:54:52.076Z,19.30
2023-04-14T12:56:53.908Z,22.70
2023-04-14T12:58:55.685Z,21.80
2023-04-14T13:00:57.302Z,23.20
2023-04-14T13:02:59.793Z,22.10
2023-04-14T13:05:01.631Z,23.10
2023-04-14T13:07:03.516Z,20.40
2023-04-14T13:09:05.346Z,20.80
2023-04-14T13:11:07.353Z,23.30
2023-04-14T13:13:09.028Z,24.30
2023-04-14T13:15:31.022Z,23.70
2023-04-14T13:17:33.428Z,23.70
2023-04-14T13:19:35.263Z,21.40
2023-04-14T13:21:36.964Z,23.70
2023-04-14T13:23:39.434Z,25.00
2023-04-14T13:25:41.435Z,23.90
2023-04-14T13:27:43.262Z,20.10
2023-04-14T13:29:45.467Z,21.20
2023-04-14T13:31:47.381Z,22.80
2023-04-14T13:33:49.083Z,24.10
2023-04-14T13:35:51.461Z,21.50
2023-04-14T13:37:53.247Z,23.60
2023-04-14T13:39:55.000Z,24.40
2023-04-14T13:41:57.604Z,25.50
2023-04-14T13:43:59.313Z,23.40
2023-04-14T13:46:01.152Z,23.30
2023-04-14T13:48:03.012Z,22.50
2023-04-14T13:50:04.771Z,23.60
2023-04-14T13:52:06.878Z,24.90
2023-04-14T13:54:08.595Z,22.70
2023-04-14T13:56:10.345Z,21.90
2023-04-14T13:58:12.082Z,20.50
2023-04-14T14:00:14.003Z,22.50
2023-04-14T14:02:16.046Z,24.50
2023-04-14T14:04:17.872Z,23.90
2023-04-14T14:06:19.579Z,23.90
2023-04-14T14:08:21.283Z,24.00
2023-04-14T14:10:23.045Z,25.10
2023-04-14T14:12:24.681Z,25.20
2023-04-14T14:14:26.405Z,22.70
2023-04-14T14:18:33.481Z,21.10
2023-04-14T14:20:35.627Z,22.00
2023-04-14T14:22:37.536Z,22.90
2023-04-14T14:24:40.329Z,23.50
2023-04-14T14:26:42.220Z,21.50
2023-04-14T14:28:45.290Z,21.50
2023-04-14T14:30:47.351Z,19.80
2023-04-14T14:33:10.689Z,21.10
2023-04-14T14:35:14.442Z,20.30
2023-04-14T14:37:16.599Z,20.00
2023-04-14T14:39:18.652Z,18.30
2023-04-14T14:41:20.515Z,19.40
2023-04-14T14:43:22.249Z,19.30
2023-04-14T14:45:30.690Z,20.60
2023-04-14T14:47:33.096Z,19.70
2023-04-14T14:49:35.584Z,19.20
2023-04-14T14:51:38.460Z,18.70
2023-04-14T14:53:40.099Z,18.10
2023-04-14T14:55:41.903Z,17.80
2023-04-14T14:57:43.607Z,16.50
2023-04-14T14:59:45.393Z,16.40
2023-04-14T15:01:47.224Z,19.50
2023-04-14T15:03:49.206Z,20.80
2023-04-14T15:05:52.434Z,22.40
2023-04-14T15:07:54.571Z,24.10
2023-04-14T15:09:56.256Z,25.00
2023-04-14T15:11:58.116Z,24.60
2023-04-14T15:14:00.297Z,22.40
2023-04-14T15:16:02.291Z,22.80
2023-04-14T15:18:05.269Z,25.00
2023-04-14T15:20:07.354Z,26.30
2023-04-14T15:22:09.016Z,25.00
2023-04-14T15:24:11.348Z,21.90
2023-04-14T15:26:14.124Z,19.90
2023-04-14T15:28:15.969Z,18.70
2023-04-14T15:30:17.728Z,21.80
2023-04-14T15:32:25.131Z,24.70
2023-04-14T15:34:28.320Z,27.20
2023-04-14T15:36:34.039Z,25.50
2023-04-14T15:38:35.845Z,26.90
2023-04-14T15:40:38.144Z,24.60
2023-04-14T15:42:40.126Z,26.60
2023-04-14T15:47:39.356Z,24.30
2023-04-14T15:49:41.050Z,24.10
2023-04-14T15:57:42.736Z,27.90
2023-04-14T15:59:44.339Z,24.10
2023-04-14T16:01:46.531Z,24.40
2023-04-14T16:03:49.742Z,25.00
2023-04-14T16:06:00.210Z,25.10
2023-04-14T16:08:02.044Z,24.90
2023-04-14T16:10:04.216Z,26.10
2023-04-14T16:12:05.926Z,27.00
2023-04-14T16:14:07.573Z,25.50
2023-04-14T16:16:09.606Z,26.40
2023-04-14T16:18:11.267Z,23.60
2023-04-14T16:20:13.474Z,24.40
2023-04-14T16:22:15.571Z,23.50
2023-04-14T16:24:17.300Z,25.50
2023-04-14T16:26:20.072Z,26.60
2023-04-14T16:28:23.137Z,24.70
2023-04-14T16:30:24.864Z,23.90
2023-04-14T16:32:27.061Z,26.00
2023-04-14T16:34:28.944Z,27.20
2023-04-14T16:36:30.998Z,28.00
2023-04-14T16:38:32.811Z,27.00
2023-04-14T16:40:57.380Z,25.70
2023-04-14T16:42:59.150Z,25.00
2023-04-14T16:45:01.032Z,23.60
2023-04-14T16:50:00.713Z,20.80
2023-04-14T16:52:02.609Z,20.00
2023-04-14T16:54:04.817Z,18.30
2023-04-14T16:56:09.646Z,17.30
2023-04-14T16:58:12.495Z,16.70
2023-04-14T17:00:14.365Z,16.30
2023-04-14T17:02:16.340Z,15.90
2023-04-14T17:04:18.342Z,15.90
2023-04-14T17:06:22.475Z,15.50
2023-04-14T17:08:35.225Z,15.70
2023-04-14T17:10:38.641Z,15.60
2023-04-14T17:12:42.418Z,15.70
2023-04-14T17:14:45.033Z,15.70
2023-04-14T17:16:46.805Z,15.30
2023-04-14T17:18:48.993Z,15.30
2023-04-14T17:20:50.677Z,15.20
2023-04-14T17:22:55.269Z,15.00
2023-04-14T17:24:56.929Z,14.80
2023-04-14T17:26:58.644Z,14.70
2023-04-14T17:29:00.652Z,14.60
2023-04-14T17:31:05.861Z,14.50
2023-04-14T17:33:08.715Z,14.40
2023-04-14T17:35:10.678Z,14.20
2023-04-14T17:37:12.330Z,14.10
2023-04-14T17:39:13.978Z,14.00
2023-04-14T17:41:15.720Z,13.90
2023-04-14T17:43:17.367Z,13.90
2023-04-14T17:45:23.102Z,13.70
2023-04-14T17:47:24.761Z,13.30
2023-04-14T17:49:28.284Z,13.20
2023-04-14T17:51:32.163Z,13.10
2023-04-14T17:53:33.823Z,12.90
2023-04-14T17:55:36.701Z,12.70
2023-04-14T17:57:38.892Z,12.60
2023-04-14T17:59:41.583Z,12.40
2023-04-14T18:01:43.558Z,12.20
2023-04-14T18:03:45.441Z,12.10
2023-04-14T18:05:47.128Z,12.10
2023-04-14T18:07:49.394Z,11.90
2023-04-14T18:09:53.850Z,11.80
2023-04-14T18:11:56.109Z,11.70
2023-04-14T18:13:58.088Z,11.60
2023-04-14T18:16:00.670Z,11.40
2023-04-14T18:18:02.473Z,11.30
2023-04-14T18:20:04.311Z,11.20
2023-04-14T18:22:05.938Z,11.00
2023-04-14T18:28:16.948Z,11.00
2023-04-14T18:30:18.775Z,10.90
2023-04-14T18:32:20.725Z,10.80
2023-04-14T18:34:22.768Z,10.70
2023-04-14T18:36:24.432Z,10.60
2023-04-14T18:38:26.400Z,10.40
2023-04-14T18:40:28.076Z,10.40
2023-04-14T18:42:31.404Z,10.30
2023-04-14T18:44:33.067Z,10.40
2023-04-14T18:46:35.796Z,10.30
2023-04-14T18:48:37.729Z,10.30
2023-04-14T18:50:40.876Z,10.30
2023-04-14T18:52:42.578Z,10.30
2023-04-14T18:54:45.015Z,10.30
2023-04-14T18:56:47.095Z,10.20
2023-04-14T18:58:49.292Z,10.10
2023-04-14T19:00:52.027Z,10.10
2023-04-14T19:03:21.910Z,10.00
2023-04-14T19:05:25.285Z,9.90
2023-04-14T19:07:27.137Z,9.90
2023-04-14T19:09:28.740Z,9.90
2023-04-14T19:11:35.649Z,9.80
2023-04-14T19:13:37.380Z,9.80
2023-04-14T19:15:39.058Z,9.80
2023-04-14T19:17:40.752Z,9.70
2023-04-14T19:19:42.603Z,9.70
2023-04-14T19:21:44.187Z,9.60
2023-04-14T19:23:45.854Z,9.50
2023-04-14T19:25:47.532Z,9.40
2023-04-14T19:27:49.285Z,9.40
2023-04-14T19:29:50.980Z,9.30
2023-04-14T19:31:53.069Z,9.30
2023-04-14T19:33:55.021Z,9.30
2023-04-14T19:35:57.062Z,9.30
2023-04-14T19:37:58.749Z,9.30
2023-04-14T19:40:00.973Z,9.30
2023-04-14T19:42:03.267Z,9.30
2023-04-14T19:44:05.150Z,9.20
2023-04-14T19:46:08.064Z,9.30
2023-04-14T19:48:22.162Z,9.30
2023-04-14T19:50:25.361Z,9.20
2023-04-14T19:52:27.104Z,9.10
2023-04-14T19:54:28.764Z,8.90
2023-04-14T19:56:30.382Z,8.90
2023-04-14T19:58:32.916Z,8.80
2023-04-14T20:00:40.799Z,8.90
2023-04-14T20:02:42.735Z,9.00
2023-04-14T20:04:45.135Z,8.90
2023-04-14T20:06:47.015Z,8.90
2023-04-14T20:08:48.974Z,8.90
2023-04-14T20:10:52.543Z,8.90
2023-04-14T20:12:54.455Z,8.80
2023-04-14T20:14:56.317Z,8.80
2023-04-14T20:16:57.966Z,8.80
2023-04-14T20:18:59.925Z,8.90
2023-04-14T20:21:01.801Z,8.60
2023-04-14T20:23:03.552Z,8.60
2023-04-14T20:25:05.547Z,8.60
2023-04-14T20:27:07.205Z,8.40
2023-04-14T20:29:08.924Z,8.40
2023-04-14T20:31:11.140Z,8.40
2023-04-14T20:33:12.905Z,8.50
2023-04-14T20:35:14.550Z,8.50
2023-04-14T20:37:16.569Z,8.40
2023-04-14T20:39:18.289Z,8.40
2023-04-14T20:41:20.569Z,8.40
2023-04-14T20:43:22.285Z,8.20
2023-04-14T20:45:24.094Z,8.10
2023-04-14T20:47:25.788Z,8.10
2023-04-14T20:49:27.477Z,8.10
2023-04-14T20:51:29.845Z,8.10
2023-04-14T20:53:31.526Z,8.00
2023-04-14T20:55:33.535Z,7.80
2023-04-14T20:57:35.302Z,7.70
2023-04-14T20:59:37.603Z,7.50
2023-04-14T21:01:39.544Z,7.70
2023-04-14T21:03:41.308Z,7.80
2023-04-14T21:05:43.079Z,7.70
2023-04-14T21:07:45.966Z,7.60
2023-04-14T21:09:47.688Z,7.40
2023-04-14T21:11:49.273Z,7.40
2023-04-14T21:15:30.733Z,7.50
2023-04-14T21:16:32.797Z,7.50
2023-04-14T21:18:34.535Z,7.50
2023-04-14T21:20:36.849Z,7.40
2023-04-14T21:22:38.459Z,7.40
2023-04-14T21:24:40.546Z,7.20
2023-04-14T21:26:42.411Z,7.10
2023-04-14T21:28:44.088Z,7.10
2023-04-14T21:30:45.753Z,7.20
2023-04-14T21:32:48.274Z,7.10
2023-04-14T21:34:50.050Z,6.90
2023-04-14T21:36:51.838Z,7.10
2023-04-14T21:38:53.458Z,7.20
2023-04-14T21:40:55.673Z,7.10
2023-04-14T21:42:57.437Z,7.00
2023-04-14T21:45:00.849Z,6.90
2023-04-14T21:47:02.565Z,6.90
2023-04-14T21:49:04.501Z,6.80
2023-04-14T21:51:06.435Z,6.80
2023-04-14T21:53:08.455Z,6.80
2023-04-14T21:55:10.445Z,6.70
2023-04-14T21:57:12.067Z,6.80
2023-04-14T21:59:13.729Z,6.60
2023-04-14T22:01:15.514Z,6.50
2023-04-14T22:03:17.337Z,6.40
2023-04-14T22:05:19.936Z,6.30
2023-04-14T22:07:21.558Z,6.40
2023-04-14T22:09:23.229Z,6.50
2023-04-14T22:11:24.946Z,6.50
2023-04-14T22:13:26.701Z,6.40
2023-04-14T22:15:29.417Z,6.40
2023-04-14T22:17:31.298Z,6.50
2023-04-14T22:19:33.009Z,6.60
2023-04-14T22:21:34.902Z,6.40
2023-04-14T22:23:36.937Z,6.40
2023-04-14T22:25:38.873Z,6.40
2023-04-14T22:27:40.482Z,6.50
2023-04-14T22:29:42.246Z,6.60
2023-04-14T22:31:43.926Z,6.50
2023-04-14T22:33:45.832Z,6.60
2023-04-14T22:35:47.817Z,6.40
2023-04-14T22:37:49.505Z,6.30
2023-04-14T22:39:51.486Z,6.10
2023-04-14T22:41:53.093Z,6.00
2023-04-14T22:43:54.752Z,6.00
2023-04-14T22:45:56.742Z,5.90
2023-04-14T22:47:58.593Z,5.90
2023-04-14T22:50:01.254Z,6.00
2023-04-14T22:52:02.994Z,6.00
2023-04-14T22:54:04.619Z,5.90
2023-04-14T22:56:06.307Z,5.80
2023-04-14T22:58:09.445Z,5.80
2023-04-14T23:00:11.584Z,5.60
2023-04-14T23:02:13.375Z,5.70
2023-04-14T23:04:15.313Z,5.70
2023-04-14T23:06:17.483Z,5.80
2023-04-14T23:08:19.143Z,5.70
2023-04-14T23:10:21.011Z,5.70
2023-04-14T23:12:22.704Z,5.80
2023-04-14T23:14:24.528Z,5.50
2023-04-14T23:16:26.506Z,5.40
2023-04-14T23:18:28.380Z,5.30
2023-04-14T23:20:30.420Z,5.40
2023-04-14T23:22:32.799Z,5.40
2023-04-14T23:24:34.433Z,5.50
2023-04-14T23:26:36.319Z,5.70
2023-04-14T23:28:37.998Z,5.70
2023-04-14T23:30:40.515Z,5.50
2023-04-14T23:32:42.276Z,5.30
2023-04-14T23:34:44.096Z,5.30
2023-04-14T23:36:46.167Z,5.50
2023-04-14T23:38:47.814Z,5.50
2023-04-14T23:40:49.974Z,5.40
2023-04-14T23:42:51.649Z,5.40
2023-04-14T23:44:54.120Z,5.50
2023-04-14T23:46:56.322Z,5.50
2023-04-14T23:48:58.973Z,5.40
2023-04-14T23:51:21.054Z,5.30
2023-04-14T23:53:25.201Z,5.20
2023-04-14T23:55:27.188Z,5.00
2023-04-14T23:57:29.124Z,5.00
2023-04-14T23:59:31.231Z,5.10
